createdAt,value
2022-11-20T00:01:20.121Z,-3.41
2022-11-20T00:03:46.925Z,-3.43
2022-11-20T00:06:15.294Z,-3.46
2022-11-20T00:08:42.026Z,-3.47
2022-11-20T00:11:15.452Z,-3.47
2022-11-20T00:13:43.120Z,-3.48
2022-11-20T00:16:10.801Z,-3.51
2022-11-20T00:18:37.474Z,-3.52
2022-11-20T00:21:05.297Z,-3.53
2022-11-20T00:23:32.111Z,-3.55
2022-11-20T00:26:03.159Z,-3.57
2022-11-20T00:28:29.785Z,-3.59
2022-11-20T00:31:07.628Z,-3.60
2022-11-20T00:33:34.768Z,-3.61
2022-11-20T00:36:02.793Z,-3.62
2022-11-20T00:38:29.531Z,-3.62
2022-11-20T00:40:59.935Z,-3.63
2022-11-20T00:43:26.836Z,-3.64
2022-11-20T00:46:00.243Z,-3.67
2022-11-20T00:48:26.956Z,-3.71
2022-11-20T00:50:54.058Z,-3.72
2022-11-20T00:53:20.737Z,-3.73
2022-11-20T00:56:05.469Z,-3.75
2022-11-20T00:58:36.723Z,-3.78
2022-11-20T01:01:04.887Z,-3.80
2022-11-20T01:03:33.330Z,-3.81
2022-11-20T01:06:02.010Z,-3.80
2022-11-20T01:08:33.086Z,-3.80
2022-11-20T01:11:08.031Z,-3.78
2022-11-20T01:13:41.542Z,-3.76
2022-11-20T01:16:15.494Z,-3.75
2022-11-20T01:18:43.730Z,-3.72
2022-11-20T01:21:12.764Z,-3.70
2022-11-20T01:23:40.377Z,-3.66
2022-11-20T01:26:09.007Z,-3.64
2022-11-20T01:28:35.811Z,-3.61
2022-11-20T01:31:02.966Z,-3.59
2022-11-20T01:33:30.008Z,-3.56
2022-11-20T01:36:04.438Z,-3.54
2022-11-20T01:38:31.070Z,-3.50
2022-11-20T01:40:57.742Z,-3.47
2022-11-20T01:43:24.685Z,-3.46
2022-11-20T01:46:16.830Z,-3.44
2022-11-20T01:48:55.051Z,-3.41
2022-11-20T01:51:32.265Z,-3.39
2022-11-20T01:54:00.574Z,-3.35
2022-11-20T01:56:27.243Z,-3.32
2022-11-20T01:58:55.641Z,-3.30
2022-11-20T02:01:22.596Z,-3.27
2022-11-20T02:03:49.562Z,-3.23
2022-11-20T02:06:20.621Z,-3.22
2022-11-20T02:08:47.273Z,-3.19
2022-11-20T02:11:14.073Z,-3.14
2022-11-20T02:13:46.994Z,-3.11
2022-11-20T02:16:22.803Z,-3.08
2022-11-20T02:18:49.643Z,-3.07
2022-11-20T02:21:29.715Z,-3.07
2022-11-20T02:24:21.058Z,-3.04
2022-11-20T02:26:53.187Z,-2.99
2022-11-20T02:29:27.150Z,-2.97
2022-11-20T02:31:53.789Z,-2.95
2022-11-20T02:34:20.428Z,-2.92
2022-11-20T02:36:47.068Z,-2.89
2022-11-20T02:39:13.833Z,-2.85
2022-11-20T02:41:40.592Z,-2.82
2022-11-20T02:44:07.363Z,-2.77
2022-11-20T02:46:34.077Z,-2.73
2022-11-20T02:49:02.406Z,-2.71
2022-11-20T02:51:29.030Z,-2.70
2022-11-20T02:53:55.718Z,-2.68
2022-11-20T02:56:22.361Z,-2.67
2022-11-20T02:58:49.017Z,-2.67
2022-11-20T03:01:15.719Z,-2.67
2022-11-20T03:03:42.466Z,-2.67
2022-11-20T03:06:09.266Z,-2.64
2022-11-20T03:08:35.990Z,-2.61
2022-11-20T03:11:04.178Z,-2.58
2022-11-20T03:13:30.816Z,-2.56
2022-11-20T03:15:57.461Z,-2.54
2022-11-20T03:18:24.157Z,-2.53
2022-11-20T03:20:50.753Z,-2.49
2022-11-20T03:23:17.413Z,-2.48
2022-11-20T03:25:44.052Z,-2.47
2022-11-20T03:28:10.728Z,-2.46
2022-11-20T03:30:37.450Z,-2.45
2022-11-20T03:33:04.111Z,-2.44
2022-11-20T03:35:30.854Z,-2.46
2022-11-20T03:37:58.492Z,-2.47
2022-11-20T03:40:25.080Z,-2.49
2022-11-20T03:42:51.728Z,-2.53
2022-11-20T03:45:18.775Z,-2.60
2022-11-20T03:47:45.680Z,-2.65
2022-11-20T03:50:14.007Z,-2.68
2022-11-20T03:52:40.760Z,-2.68
2022-11-20T03:55:08.057Z,-2.69
2022-11-20T03:57:34.674Z,-2.75
2022-11-20T04:00:01.402Z,-2.80
2022-11-20T04:02:31.127Z,-2.78
2022-11-20T04:04:57.765Z,-2.78
2022-11-20T04:07:24.657Z,-2.81
2022-11-20T04:09:51.385Z,-2.84
2022-11-20T04:12:18.045Z,-2.83
2022-11-20T04:14:44.816Z,-2.82
2022-11-20T04:17:11.492Z,-2.80
2022-11-20T04:19:38.201Z,-2.79
2022-11-20T04:22:04.893Z,-2.79
2022-11-20T04:24:31.535Z,-2.77
2022-11-20T04:26:58.276Z,-2.74
2022-11-20T04:29:25.003Z,-2.71
2022-11-20T04:31:51.629Z,-2.71
2022-11-20T04:34:18.252Z,-2.70
2022-11-20T04:36:45.031Z,-2.68
2022-11-20T04:39:16.301Z,-2.65
2022-11-20T04:41:43.106Z,-2.65
2022-11-20T04:44:09.770Z,-2.67
2022-11-20T04:46:38.460Z,-2.68
2022-11-20T04:49:05.184Z,-2.69
2022-11-20T04:51:32.132Z,-2.70
2022-11-20T04:53:58.836Z,-2.73
2022-11-20T04:56:25.603Z,-2.73
2022-11-20T04:58:52.313Z,-2.72
2022-11-20T05:01:20.815Z,-2.71
2022-11-20T05:03:47.557Z,-2.69
2022-11-20T05:06:15.690Z,-2.68
2022-11-20T05:08:42.449Z,-2.66
2022-11-20T05:11:11.215Z,-2.65
2022-11-20T05:13:38.140Z,-2.65
2022-11-20T05:16:06.414Z,-2.66
2022-11-20T05:18:34.331Z,-2.67
2022-11-20T05:21:01.052Z,-2.66
2022-11-20T05:23:28.285Z,-2.64
2022-11-20T05:25:59.165Z,-2.61
2022-11-20T05:28:26.721Z,-2.56
2022-11-20T05:30:53.359Z,-2.53
2022-11-20T05:33:20.257Z,-2.57
2022-11-20T05:35:47.032Z,-2.63
2022-11-20T05:38:13.715Z,-2.65
2022-11-20T05:40:40.370Z,-2.65
2022-11-20T05:43:07.079Z,-2.66
2022-11-20T05:45:33.781Z,-2.68
2022-11-20T05:48:01.325Z,-2.73
2022-11-20T05:50:28.514Z,-2.75
2022-11-20T05:52:55.200Z,-2.72
2022-11-20T05:55:21.874Z,-2.65
2022-11-20T05:57:48.577Z,-2.58
2022-11-20T06:00:15.869Z,-2.51
2022-11-20T06:02:42.545Z,-2.45
2022-11-20T06:05:09.615Z,-2.39
2022-11-20T06:07:36.277Z,-2.33
2022-11-20T06:10:03.179Z,-2.26
2022-11-20T06:12:32.594Z,-2.19
2022-11-20T06:14:59.973Z,-2.12
2022-11-20T06:17:26.606Z,-2.07
2022-11-20T06:19:53.246Z,-2.01
2022-11-20T06:22:20.044Z,-1.98
2022-11-20T06:24:46.761Z,-2.02
2022-11-20T06:27:13.412Z,-2.00
2022-11-20T06:29:40.049Z,-1.93
2022-11-20T06:32:06.677Z,-1.89
2022-11-20T06:34:33.419Z,-1.86
2022-11-20T06:37:00.046Z,-1.85
2022-11-20T06:39:26.687Z,-1.85
2022-11-20T06:41:58.563Z,-1.85
2022-11-20T06:44:25.885Z,-1.87
2022-11-20T06:46:52.728Z,-1.87
2022-11-20T06:49:19.740Z,-1.92
2022-11-20T06:51:46.625Z,-1.99
2022-11-20T06:54:13.431Z,-2.06
2022-11-20T06:56:40.374Z,-2.09
2022-11-20T06:59:07.944Z,-2.02
2022-11-20T07:01:34.935Z,-1.93
2022-11-20T07:04:01.663Z,-1.88
2022-11-20T07:06:28.562Z,-1.82
2022-11-20T07:08:55.503Z,-1.78
2022-11-20T07:11:22.216Z,-1.76
2022-11-20T07:13:48.827Z,-1.75
2022-11-20T07:16:15.585Z,-1.71
2022-11-20T07:18:47.320Z,-1.69
2022-11-20T07:23:40.630Z,-1.76
2022-11-20T07:26:08.386Z,-1.76
2022-11-20T07:28:35.275Z,-1.70
2022-11-20T07:31:02.059Z,-1.66
2022-11-20T07:33:28.809Z,-1.60
2022-11-20T07:35:55.588Z,-1.54
2022-11-20T07:38:22.274Z,-1.46
2022-11-20T07:40:49.992Z,-1.42
2022-11-20T07:43:16.684Z,-1.38
2022-11-20T07:45:43.621Z,-1.33
2022-11-20T07:48:10.379Z,-1.28
2022-11-20T07:50:37.037Z,-1.23
2022-11-20T07:53:05.086Z,-1.16
2022-11-20T07:55:31.866Z,-1.04
2022-11-20T07:57:58.623Z,-0.92
2022-11-20T08:00:25.891Z,-0.82
2022-11-20T08:02:53.037Z,-0.74
2022-11-20T08:05:19.877Z,-0.70
2022-11-20T08:07:46.783Z,-0.68
2022-11-20T08:10:14.544Z,-0.69
2022-11-20T08:13:04.114Z,-0.73
2022-11-20T08:15:30.990Z,-0.79
2022-11-20T08:18:29.520Z,-0.91
2022-11-20T08:20:51.448Z,-1.00
2022-11-20T08:23:18.126Z,-1.07
2022-11-20T08:25:44.811Z,-1.06
2022-11-20T08:28:20.209Z,-1.03
2022-11-20T08:30:48.184Z,-1.03
2022-11-20T08:33:15.313Z,-0.99
2022-11-20T08:35:42.840Z,-0.95
2022-11-20T08:38:09.570Z,-0.92
2022-11-20T08:40:36.253Z,-0.90
2022-11-20T08:43:02.966Z,-0.83
2022-11-20T08:45:33.707Z,-0.82
2022-11-20T08:48:01.939Z,-0.80
2022-11-20T08:50:28.595Z,-0.78
2022-11-20T08:52:55.414Z,-0.75
2022-11-20T08:55:22.055Z,-0.70
2022-11-20T08:57:51.100Z,-0.67
2022-11-20T09:00:18.063Z,-0.62
2022-11-20T09:02:44.982Z,-0.60
2022-11-20T09:05:11.589Z,-0.61
2022-11-20T09:07:38.375Z,-0.60
2022-11-20T09:12:56.396Z,-0.66
2022-11-20T09:15:23.925Z,-0.70
2022-11-20T09:17:59.113Z,-0.72
2022-11-20T09:20:26.598Z,-0.73
2022-11-20T09:22:53.228Z,-0.72
2022-11-20T09:25:19.990Z,-0.70
2022-11-20T09:27:47.242Z,-0.66
2022-11-20T09:30:17.489Z,-0.68
2022-11-20T09:32:44.198Z,-0.64
2022-11-20T09:35:11.621Z,-0.59
2022-11-20T09:37:38.625Z,-0.59
2022-11-20T09:40:05.789Z,-0.59
2022-11-20T09:42:54.571Z,-0.56
2022-11-20T09:45:26.028Z,-0.58
2022-11-20T09:47:55.843Z,-0.59
2022-11-20T09:50:49.659Z,-0.57
2022-11-20T09:53:41.874Z,-0.58
2022-11-20T09:56:09.203Z,-0.63
2022-11-20T09:58:52.408Z,-0.69
2022-11-20T10:01:20.309Z,-0.69
2022-11-20T10:03:50.778Z,-0.66
2022-11-20T10:06:18.715Z,-0.64
2022-11-20T10:08:56.711Z,-0.65
2022-11-20T10:11:36.320Z,-0.58
2022-11-20T10:14:09.620Z,-0.55
2022-11-20T10:16:42.263Z,-0.54
2022-11-20T10:19:33.928Z,-0.54
2022-11-20T10:22:31.893Z,-0.61
2022-11-20T10:25:23.702Z,-0.62
2022-11-20T10:28:11.590Z,-0.47
2022-11-20T10:30:39.902Z,-0.35
2022-11-20T10:33:18.234Z,-0.37
2022-11-20T10:36:01.964Z,-0.24
2022-11-20T10:38:35.961Z,-0.12
2022-11-20T10:41:21.851Z,0.07
2022-11-20T10:43:49.272Z,0.15
2022-11-20T10:46:18.828Z,0.16
2022-11-20T10:48:46.020Z,0.10
2022-11-20T10:51:38.016Z,0.10
2022-11-20T10:54:20.957Z,0.21
2022-11-20T10:56:51.738Z,0.32
2022-11-20T10:59:52.742Z,0.33
2022-11-20T11:02:21.284Z,0.44
2022-11-20T11:04:51.912Z,0.45
2022-11-20T11:07:22.615Z,0.42
2022-11-20T11:09:56.661Z,0.34
2022-11-20T11:12:25.486Z,0.20
2022-11-20T11:14:56.666Z,0.14
2022-11-20T11:17:31.618Z,0.14
2022-11-20T11:20:12.008Z,0.21
2022-11-20T11:22:59.313Z,0.32
2022-11-20T11:25:26.055Z,0.51
2022-11-20T11:27:53.138Z,0.58
2022-11-20T11:30:20.837Z,0.61
2022-11-20T11:32:47.659Z,0.64
2022-11-20T11:35:50.974Z,0.65
2022-11-20T11:38:29.538Z,0.59
2022-11-20T11:40:57.449Z,0.56
2022-11-20T11:43:45.428Z,0.49
2022-11-20T11:46:21.193Z,0.36
2022-11-20T11:49:01.755Z,0.29
2022-11-20T11:52:05.685Z,0.14
2022-11-20T11:54:41.022Z,-0.06
2022-11-20T11:57:23.875Z,-0.18
2022-11-20T12:00:12.042Z,-0.27
2022-11-20T12:02:51.117Z,-0.35
2022-11-20T12:05:27.975Z,-0.47
2022-11-20T12:08:06.971Z,-0.54
2022-11-20T12:10:50.212Z,-0.59
2022-11-20T12:13:35.465Z,-0.64
2022-11-20T12:16:03.368Z,-0.73
2022-11-20T12:18:30.076Z,-0.78
2022-11-20T12:21:22.386Z,-0.83
2022-11-20T12:24:04.445Z,-0.88
2022-11-20T12:26:52.496Z,-0.94
2022-11-20T12:29:35.253Z,-0.97
2022-11-20T12:32:17.176Z,-0.96
2022-11-20T12:34:53.132Z,-0.97
2022-11-20T12:37:30.951Z,-0.98
2022-11-20T12:40:01.293Z,-1.02
2022-11-20T12:43:20.573Z,-1.08
2022-11-20T12:46:03.162Z,-1.16
2022-11-20T12:48:32.913Z,-1.18
2022-11-20T12:51:15.922Z,-1.16
2022-11-20T12:53:55.070Z,-1.17
2022-11-20T12:56:31.505Z,-1.18
2022-11-20T12:59:17.852Z,-1.19
2022-11-20T13:01:52.984Z,-1.20
2022-11-20T13:04:28.740Z,-1.20
2022-11-20T13:06:55.435Z,-1.21
2022-11-20T13:09:25.188Z,-1.23
2022-11-20T13:12:03.063Z,-1.25
2022-11-20T13:14:35.217Z,-1.25
2022-11-20T13:17:06.874Z,-1.29
2022-11-20T13:19:33.675Z,-1.31
2022-11-20T13:22:00.324Z,-1.31
2022-11-20T13:24:33.456Z,-1.32
2022-11-20T13:27:20.885Z,-1.31
2022-11-20T13:30:19.235Z,-1.34
2022-11-20T13:32:56.651Z,-1.31
2022-11-20T13:35:29.610Z,-1.33
2022-11-20T13:38:09.307Z,-1.32
2022-11-20T13:40:56.728Z,-1.29
2022-11-20T13:43:27.359Z,-1.30
2022-11-20T13:46:01.417Z,-1.32
2022-11-20T13:48:33.689Z,-1.36
2022-11-20T13:51:23.677Z,-1.37
2022-11-20T13:54:14.949Z,-1.34
2022-11-20T13:57:06.987Z,-1.29
2022-11-20T13:59:53.873Z,-1.29
2022-11-20T14:02:21.125Z,-1.27
2022-11-20T14:04:49.595Z,-1.26
2022-11-20T14:07:17.568Z,-1.29
2022-11-20T14:09:55.183Z,-1.34
2022-11-20T18:06:27.497Z,-2.67
2022-11-20T18:08:54.356Z,-2.66
2022-11-20T18:11:25.743Z,-2.60
2022-11-20T18:14:12.620Z,-2.51
2022-11-20T18:16:47.514Z,-2.41
2022-11-20T18:19:16.612Z,-2.35
2022-11-20T18:21:43.440Z,-2.29
2022-11-20T18:24:10.385Z,-2.22
2022-11-20T18:26:42.766Z,-2.16
2022-11-20T18:29:10.916Z,-2.10
2022-11-20T18:31:37.530Z,-2.06
2022-11-20T18:34:05.182Z,-2.02
2022-11-20T18:36:32.712Z,-1.96
2022-11-20T18:39:00.146Z,-1.89
2022-11-20T18:41:47.031Z,-1.85
2022-11-20T18:44:34.141Z,-1.82
2022-11-20T18:47:00.908Z,-1.80
2022-11-20T18:49:27.829Z,-1.79
2022-11-20T18:51:54.801Z,-1.75
2022-11-20T18:54:22.045Z,-1.71
2022-11-20T18:56:49.134Z,-1.65
2022-11-20T18:59:18.263Z,-1.59
2022-11-20T19:01:45.266Z,-1.55
2022-11-20T19:04:13.207Z,-1.50
2022-11-20T19:06:40.627Z,-1.48
2022-11-20T19:09:09.184Z,-1.47
2022-11-20T19:11:36.698Z,-1.46
2022-11-20T19:14:03.997Z,-1.44
2022-11-20T19:16:31.193Z,-1.47
2022-11-20T19:19:03.464Z,-1.50
2022-11-20T19:21:30.578Z,-1.49
2022-11-20T19:23:58.715Z,-1.48
2022-11-20T19:26:25.842Z,-1.45
2022-11-20T19:28:52.638Z,-1.43
2022-11-20T19:31:24.471Z,-1.43
2022-11-20T19:33:58.939Z,-1.43
2022-11-20T19:36:27.962Z,-1.44
2022-11-20T19:38:54.941Z,-1.42
2022-11-20T19:41:29.221Z,-1.41
2022-11-20T19:44:00.198Z,-1.43
2022-11-20T19:46:28.640Z,-1.42
2022-11-20T19:48:56.281Z,-1.42
2022-11-20T19:51:27.585Z,-1.43
2022-11-20T19:53:55.020Z,-1.42
2022-11-20T19:56:21.776Z,-1.41
2022-11-20T19:58:48.484Z,-1.42
2022-11-20T20:01:19.903Z,-1.44
2022-11-20T20:03:46.815Z,-1.44
2022-11-20T20:06:20.930Z,-1.45
2022-11-20T20:08:48.279Z,-1.44
2022-11-20T20:11:19.243Z,-1.42
2022-11-20T20:13:46.252Z,-1.44
2022-11-20T20:16:14.938Z,-1.42
2022-11-20T20:18:41.999Z,-1.41
2022-11-20T20:21:10.988Z,-1.39
2022-11-20T20:23:38.070Z,-1.40
2022-11-20T20:26:05.684Z,-1.40
2022-11-20T20:28:32.398Z,-1.38
2022-11-20T20:31:09.068Z,-1.35
2022-11-20T20:33:39.336Z,-1.33
2022-11-20T20:36:06.335Z,-1.32
2022-11-20T20:38:33.419Z,-1.31
2022-11-20T20:41:00.290Z,-1.34
2022-11-20T20:43:27.070Z,-1.36
2022-11-20T20:45:53.938Z,-1.33
2022-11-20T20:48:22.438Z,-1.31
2022-11-20T20:50:56.091Z,-1.27
2022-11-20T20:53:22.965Z,-1.24
2022-11-20T20:56:00.053Z,-1.23
2022-11-20T20:58:27.261Z,-1.21
2022-11-20T21:00:54.466Z,-1.21
2022-11-20T21:03:21.522Z,-1.24
2022-11-20T21:05:54.996Z,-1.26
2022-11-20T21:08:21.876Z,-1.29
2022-11-20T21:10:49.190Z,-1.32
2022-11-20T21:13:15.937Z,-1.31
2022-11-20T21:15:48.683Z,-1.31
2022-11-20T21:18:16.323Z,-1.28
2022-11-20T21:21:02.253Z,-1.28
2022-11-20T21:23:29.021Z,-1.28
2022-11-20T21:25:55.799Z,-1.26
2022-11-20T21:28:22.463Z,-1.23
2022-11-20T21:30:49.176Z,-1.19
2022-11-20T21:33:15.855Z,-1.16
2022-11-20T21:35:42.710Z,-1.12
2022-11-20T21:38:09.459Z,-1.07
2022-11-20T21:40:36.106Z,-1.02
2022-11-20T21:43:03.026Z,-0.99
2022-11-20T21:45:29.743Z,-0.98
2022-11-20T21:47:56.379Z,-0.97
2022-11-20T21:50:23.012Z,-0.99
2022-11-20T21:52:49.682Z,-1.01
2022-11-20T21:55:16.602Z,-1.02
2022-11-20T21:57:43.552Z,-1.04
2022-11-20T22:00:11.246Z,-1.02
2022-11-20T22:02:41.037Z,-0.99
2022-11-20T22:05:08.709Z,-0.98
2022-11-20T22:07:35.493Z,-0.99
2022-11-20T22:10:02.266Z,-1.00
2022-11-20T22:12:28.915Z,-1.01
2022-11-20T22:14:55.653Z,-1.01
2022-11-20T22:17:42.317Z,-1.00
2022-11-20T22:20:09.733Z,-0.95
2022-11-20T22:22:36.523Z,-0.96
2022-11-20T22:25:03.483Z,-0.96
2022-11-20T22:27:30.317Z,-0.94
2022-11-20T22:29:57.045Z,-0.95
2022-11-20T22:32:24.112Z,-0.96
2022-11-20T22:34:50.804Z,-0.94
2022-11-20T22:37:17.427Z,-0.93
2022-11-20T22:39:44.151Z,-0.94
2022-11-20T22:42:11.008Z,-0.92
2022-11-20T22:44:37.802Z,-0.91
2022-11-20T22:47:10.093Z,-0.92
2022-11-20T22:49:38.187Z,-0.95
2022-11-20T22:52:05.079Z,-0.99
2022-11-20T22:54:31.778Z,-1.01
2022-11-20T22:56:58.527Z,-0.99
2022-11-20T22:59:25.210Z,-1.00
2022-11-20T23:01:51.880Z,-0.99
2022-11-20T23:04:18.669Z,-1.00
2022-11-20T23:06:45.494Z,-1.00
2022-11-20T23:09:12.923Z,-0.99
2022-11-20T23:11:39.738Z,-0.99
2022-11-20T23:14:11.275Z,-1.00
2022-11-20T23:16:37.943Z,-0.96
2022-11-20T23:19:06.355Z,-0.95
2022-11-20T23:21:33.607Z,-0.96
2022-11-20T23:24:01.451Z,-0.97
2022-11-20T23:26:31.190Z,-0.95
2022-11-20T23:28:58.502Z,-0.91
2022-11-20T23:31:26.318Z,-0.88
2022-11-20T23:33:53.077Z,-0.87
2022-11-20T23:36:19.920Z,-0.85
2022-11-20T23:38:46.596Z,-0.81
2022-11-20T23:41:13.449Z,-0.79
2022-11-20T23:43:40.185Z,-0.82
2022-11-20T23:46:07.021Z,-0.84
2022-11-20T23:48:34.995Z,-0.86
2022-11-20T23:51:01.791Z,-0.87
2022-11-20T23:53:28.743Z,-0.84
2022-11-20T23:56:00.036Z,-0.82
2022-11-20T23:58:32.327Z,-0.80
